Time;durP1;ratioP1;P1;durP2;ratioP2;P2;SDS_P1;SDS_P2;PMS_P1;PMS_P2;Temp;Humidity;BMP_temperature;BMP_pressure;BME280_temperature;BME280_humidity;BME280_pressure;Samples;Min_cycle;Max_cycle;Signal;HPM_P1;HPM_P2
2022/05/19 00:00:00;;;;;;;4.32;2.05;;;26.60;46.00;;;;;;7675753;23;20147;-68
2022/05/19 00:03:01;;;;;;;6.05;2.08;;;26.50;45.80;;;;;;7674207;23;20016;-69
2022/05/19 00:06:05;;;;;;;5.70;2.13;;;26.50;46.00;;;;;;7673487;23;20013;-68
2022/05/19 00:09:07;;;;;;;5.97;2.20;;;26.40;45.90;;;;;;7673982;23;20020;-68
2022/05/19 00:12:13;;;;;;;6.40;2.78;;;26.40;45.80;;;;;;7674430;23;20029;-68
2022/05/19 00:15:14;;;;;;;17.17;2.75;;;26.40;45.80;;;;;;7674291;23;20453;-68
2022/05/19 00:18:15;;;;;;;7.10;2.67;;;26.30;45.90;;;;;;7673611;23;20017;-68
2022/05/19 00:21:15;;;;;;;5.13;1.80;;;26.30;46.00;;;;;;7673290;23;20025;-68
2022/05/19 00:24:16;;;;;;;5.13;1.80;;;26.30;46.00;;;;;;7675396;23;20374;-68
2022/05/19 00:27:18;;;;;;;4.50;2.17;;;26.30;46.00;;;;;;7648889;23;20103;-68
2022/05/19 00:30:19;;;;;;;10.40;2.50;;;26.30;46.10;;;;;;7675443;23;20025;-68
2022/05/19 00:33:21;;;;;;;11.80;2.70;;;26.20;46.00;;;;;;7672583;23;20040;-69
2022/05/19 00:36:22;;;;;;;6.00;2.50;;;26.20;46.10;;;;;;7674355;23;20017;-68
2022/05/19 00:39:22;;;;;;;5.63;2.35;;;26.20;46.10;;;;;;7675405;23;20024;-68
2022/05/19 00:45:58;;;;;;;7.43;2.47;;;26.20;46.10;;;;;;7675337;23;20017;-68
2022/05/19 00:49:09;;;;;;;7.30;2.45;;;26.10;46.30;;;;;;7676002;23;20005;-70
2022/05/19 00:52:18;;;;;;;4.43;2.15;;;26.10;46.50;;;;;;7675420;23;20009;-67
2022/05/19 00:55:26;;;;;;;5.80;2.00;;;26.10;46.70;;;;;;7675475;23;20032;-67
2022/05/19 00:58:36;;;;;;;9.52;2.35;;;26.10;47.00;;;;;;7676150;23;20017;-70
2022/05/19 01:01:40;;;;;;;6.20;2.38;;;26.00;47.30;;;;;;7677613;23;20017;-68
2022/05/19 01:04:53;;;;;;;12.88;3.25;;;26.00;47.50;;;;;;7677633;23;20363;-68
2022/05/19 01:07:59;;;;;;;20.08;3.88;;;25.90;47.60;;;;;;7677360;23;20467;-67
2022/05/19 01:11:05;;;;;;;9.98;2.83;;;25.90;47.80;;;;;;7677402;23;20408;-69
2022/05/19 01:14:06;;;;;;;3.67;2.08;;;25.90;47.70;;;;;;7675887;23;20503;-68
2022/05/19 01:17:07;;;;;;;7.25;2.53;;;25.90;47.60;;;;;;7676383;23;20600;-68
2022/05/19 01:20:12;;;;;;;5.25;2.17;;;25.90;47.50;;;;;;7675079;23;20020;-68
2022/05/19 01:23:33;;;;;;;4.32;2.25;;;25.80;47.50;;;;;;7677838;23;20013;-68
2022/05/19 01:26:40;;;;;;;4.32;2.13;;;25.80;47.50;;;;;;7619904;23;20021;-68
2022/05/19 01:29:41;;;;;;;6.13;2.25;;;25.80;47.70;;;;;;7675929;23;20029;-68
2022/05/19 01:32:42;;;;;;;4.72;2.15;;;25.80;47.70;;;;;;7650950;23;20868;-68
2022/05/19 01:35:43;;;;;;;6.75;2.30;;;25.80;47.70;;;;;;7675516;23;20404;-68
2022/05/19 01:38:44;;;;;;;6.00;2.40;;;25.70;47.80;;;;;;7675882;23;20009;-68
2022/05/19 01:42:26;;;;;;;3.47;2.05;;;25.70;48.00;;;;;;7676126;23;20017;-68
2022/05/19 01:45:47;;;;;;;7.82;2.50;;;25.70;48.10;;;;;;7674665;23;20120;-68
2022/05/19 01:48:55;;;;;;;5.15;1.95;;;25.60;48.20;;;;;;7674980;23;20089;-68
2022/05/19 01:52:11;;;;;;;5.15;2.20;;;25.60;48.40;;;;;;7675346;23;20064;-68
2022/05/19 01:55:21;;;;;;;2.90;1.95;;;25.50;48.60;;;;;;7675399;23;20139;-68
2022/05/19 01:58:32;;;;;;;16.40;2.33;;;25.40;48.80;;;;;;7675890;23;20032;-69
2022/05/19 02:01:33;;;;;;;4.35;2.50;;;25.40;48.80;;;;;;7676077;23;20487;-68
2022/05/19 02:04:42;;;;;;;4.63;2.30;;;25.30;48.80;;;;;;7645646;23;20494;-68
2022/05/19 02:07:46;;;;;;;5.38;2.58;;;25.30;49.10;;;;;;7689229;23;20068;-68
2022/05/19 02:10:51;;;;;;;3.85;2.40;;;25.30;49.40;;;;;;7677037;23;20013;-68
2022/05/19 02:13:54;;;;;;;4.93;2.10;;;25.30;49.60;;;;;;7676618;23;20306;-68
2022/05/19 02:16:57;;;;;;;3.63;2.25;;;25.30;49.80;;;;;;7677494;23;20013;-68
2022/05/19 02:20:03;;;;;;;8.07;2.58;;;25.20;49.80;;;;;;7676897;23;20021;-69
2022/05/19 02:23:05;;;;;;;7.10;2.38;;;25.10;50.00;;;;;;7651568;23;20091;-68
2022/05/19 02:26:06;;;;;;;9.63;3.08;;;25.20;50.20;;;;;;7676741;23;20017;-68
2022/05/19 02:29:13;;;;;;;10.02;3.83;;;25.20;50.20;;;;;;7651758;23;20040;-68
2022/05/19 02:32:13;;;;;;;6.88;3.75;;;25.10;50.70;;;;;;7676176;23;20084;-68
2022/05/19 02:35:15;;;;;;;15.35;6.68;;;25.10;50.10;;;;;;7678105;23;20017;-69
2022/05/19 02:38:19;;;;;;;16.00;5.85;;;25.10;50.20;;;;;;7677099;23;20017;-68
2022/05/19 02:41:20;;;;;;;10.15;4.10;;;25.10;50.30;;;;;;7678001;23;20499;-68
2022/05/19 02:44:21;;;;;;;9.23;3.50;;;25.10;50.40;;;;;;7677475;23;20009;-68
2022/05/19 02:47:22;;;;;;;8.00;2.92;;;25.00;50.60;;;;;;7651662;23;20017;-69
2022/05/19 02:50:24;;;;;;;7.70;2.63;;;25.00;50.90;;;;;;7676310;23;20029;-68
2022/05/19 02:53:26;;;;;;;6.68;2.55;;;24.90;51.10;;;;;;7675876;23;20323;-68
2022/05/19 02:56:28;;;;;;;7.93;2.90;;;24.90;51.30;;;;;;7676723;23;20021;-68
2022/05/19 02:59:30;;;;;;;11.38;2.78;;;24.80;51.50;;;;;;7677725;23;20079;-68
2022/05/19 03:02:31;;;;;;;8.80;2.33;;;24.80;51.80;;;;;;7646293;23;20021;-68
2022/05/19 03:05:33;;;;;;;2.90;2.22;;;24.70;51.80;;;;;;7651840;23;20024;-68
2022/05/19 03:08:34;;;;;;;6.40;2.90;;;24.70;51.80;;;;;;7626280;23;20009;-68
2022/05/19 03:11:35;;;;;;;4.88;2.30;;;24.60;51.70;;;;;;7626942;23;20035;-68
2022/05/19 03:14:39;;;;;;;6.15;2.38;;;24.60;51.70;;;;;;7625445;23;20103;-68
2022/05/19 03:17:40;;;;;;;8.05;2.60;;;24.60;51.80;;;;;;7650823;23;20017;-68
2022/05/19 03:20:41;;;;;;;8.10;2.90;;;24.60;51.80;;;;;;7684672;23;20163;-68
2022/05/19 03:23:42;;;;;;;5.80;2.25;;;24.60;51.90;;;;;;7677593;23;20363;-68
2022/05/19 03:26:43;;;;;;;5.78;2.95;;;24.60;51.90;;;;;;7688022;23;20016;-68
2022/05/19 03:29:45;;;;;;;6.68;2.80;;;24.50;52.00;;;;;;7683638;23;20025;-69
2022/05/19 03:32:46;;;;;;;9.63;2.67;;;24.50;52.20;;;;;;7688176;23;20036;-68
2022/05/19 03:35:59;;;;;;;5.28;2.42;;;24.50;52.40;;;;;;7688409;23;20092;-68
2022/05/19 03:39:00;;;;;;;7.68;2.80;;;24.30;52.50;;;;;;7663071;23;20016;-68
2022/05/19 03:42:00;;;;;;;11.98;3.50;;;24.30;52.60;;;;;;7663206;23;20023;-68
2022/05/19 03:45:03;;;;;;;8.35;3.30;;;24.30;52.70;;;;;;7713950;23;20013;-67
2022/05/19 03:48:04;;;;;;;6.18;2.78;;;24.30;52.80;;;;;;7686096;23;20048;-68
2022/05/19 03:51:13;;;;;;;4.57;2.80;;;24.30;53.00;;;;;;7713808;23;20431;-68
2022/05/19 03:54:14;;;;;;;7.28;3.03;;;24.20;53.10;;;;;;7688004;23;20423;-68
2022/05/19 03:57:17;;;;;;;5.30;2.63;;;24.20;53.10;;;;;;7700424;23;20031;-68
2022/05/19 04:00:19;;;;;;;4.93;2.67;;;24.20;53.00;;;;;;7712498;23;20028;-68
2022/05/19 04:03:20;;;;;;;6.20;2.40;;;24.20;52.90;;;;;;7713518;23;20024;-69
2022/05/19 04:06:20;;;;;;;5.22;2.72;;;24.20;52.80;;;;;;7713732;23;20088;-69
2022/05/19 04:09:22;;;;;;;5.35;2.55;;;24.30;52.90;;;;;;7713885;23;20087;-69
2022/05/19 04:12:23;;;;;;;3.88;2.80;;;24.20;52.80;;;;;;7713578;23;20311;-69
2022/05/19 04:15:25;;;;;;;3.30;2.63;;;24.20;52.90;;;;;;7713716;23;20013;-69
2022/05/19 04:18:26;;;;;;;3.08;2.30;;;24.20;53.00;;;;;;7686722;23;20017;-69
2022/05/19 04:21:26;;;;;;;12.13;2.72;;;24.20;53.10;;;;;;7687219;23;20028;-68
2022/05/19 04:24:27;;;;;;;6.38;2.85;;;24.20;53.20;;;;;;7673088;23;20143;-69
2022/05/19 04:27:29;;;;;;;6.07;3.00;;;24.20;53.40;;;;;;7712096;23;20008;-69
2022/05/19 04:30:31;;;;;;;5.72;2.80;;;24.10;53.40;;;;;;7686183;23;20094;-69
2022/05/19 04:33:36;;;;;;;4.05;2.75;;;24.20;53.50;;;;;;7671881;23;20009;-68
2022/05/19 04:36:37;;;;;;;9.30;3.35;;;24.20;53.50;;;;;;7687549;23;20013;-69
2022/05/19 04:39:38;;;;;;;8.63;2.60;;;24.10;53.50;;;;;;7687607;23;20016;-68
2022/05/19 04:42:39;;;;;;;9.35;2.83;;;24.10;53.60;;;;;;7686861;23;20027;-68
2022/05/19 04:45:47;;;;;;;5.05;2.53;;;24.10;53.60;;;;;;7698830;23;20024;-69
2022/05/19 04:48:48;;;;;;;7.68;3.00;;;24.10;53.70;;;;;;7662204;23;20367;-69
2022/05/19 04:51:49;;;;;;;4.72;2.72;;;24.00;53.60;;;;;;7713394;23;20091;-67
2022/05/19 04:54:50;;;;;;;6.93;3.42;;;24.00;53.70;;;;;;7688011;23;20022;-68
2022/05/19 04:57:51;;;;;;;7.05;2.78;;;24.10;53.80;;;;;;7686998;23;20293;-68
2022/05/19 05:00:52;;;;;;;10.52;2.60;;;24.00;53.70;;;;;;7687662;23;20044;-68
2022/05/19 05:03:53;;;;;;;5.43;2.88;;;24.10;53.80;;;;;;7687009;23;20051;-68
2022/05/19 05:06:54;;;;;;;7.03;3.08;;;24.10;53.80;;;;;;7713940;23;20515;-68
2022/05/19 05:09:55;;;;;;;7.13;3.25;;;24.10;53.80;;;;;;7686797;23;20079;-68
2022/05/19 05:12:56;;;;;;;7.03;2.40;;;24.10;53.80;;;;;;7713164;23;20016;-68
2022/05/19 05:15:58;;;;;;;7.18;3.05;;;24.10;53.80;;;;;;7687155;23;20104;-67
2022/05/19 05:18:59;;;;;;;5.35;2.63;;;24.10;53.80;;;;;;7712285;23;20474;-67
2022/05/19 05:22:00;;;;;;;5.80;3.17;;;24.20;53.80;;;;;;7686831;23;20028;-68
2022/05/19 05:25:06;;;;;;;8.77;3.67;;;24.20;54.30;;;;;;7673136;23;20087;-68
2022/05/19 05:28:08;;;;;;;12.57;3.08;;;24.20;53.70;;;;;;7686429;23;20017;-69
2022/05/19 05:31:09;;;;;;;7.95;2.75;;;24.20;53.70;;;;;;7679575;23;20040;-69
2022/05/19 05:34:10;;;;;;;11.82;3.17;;;24.20;53.70;;;;;;7687213;23;20138;-69
2022/05/19 05:37:11;;;;;;;10.15;2.95;;;24.20;53.80;;;;;;7714796;23;20381;-69
2022/05/19 05:40:12;;;;;;;8.93;3.17;;;24.20;53.80;;;;;;7689890;23;20080;-69
2022/05/19 05:43:18;;;;;;;10.40;3.20;;;24.20;53.80;;;;;;7686679;23;20027;-69
2022/05/19 05:46:19;;;;;;;6.00;2.90;;;24.20;53.80;;;;;;7687931;23;20021;-68
2022/05/19 05:49:20;;;;;;;7.40;2.75;;;24.30;53.80;;;;;;7662419;23;20051;-68
2022/05/19 05:52:22;;;;;;;9.82;3.15;;;24.30;53.80;;;;;;7690073;23;20020;-68
2022/05/19 05:55:23;;;;;;;4.60;2.47;;;24.30;53.80;;;;;;7676544;23;20013;-68
2022/05/19 05:58:25;;;;;;;5.57;2.75;;;24.40;53.80;;;;;;7677281;23;20037;-68
2022/05/19 06:01:27;;;;;;;6.30;2.88;;;24.30;53.70;;;;;;7637189;23;20020;-69
2022/05/19 06:04:28;;;;;;;7.95;2.92;;;24.40;53.70;;;;;;7675934;23;20013;-69
2022/05/19 06:07:29;;;;;;;8.50;3.00;;;24.50;53.60;;;;;;7676537;23;20035;-68
2022/05/19 06:10:30;;;;;;;8.98;3.10;;;24.60;53.50;;;;;;7689246;23;20028;-68
2022/05/19 06:13:32;;;;;;;5.35;3.08;;;24.60;53.30;;;;;;7688657;23;20013;-68
2022/05/19 06:16:33;;;;;;;6.43;3.20;;;24.70;53.20;;;;;;7715016;23;20427;-68
2022/05/19 06:19:34;;;;;;;4.57;2.90;;;24.70;53.00;;;;;;7687852;23;20028;-69
2022/05/19 06:22:34;;;;;;;9.00;3.08;;;24.80;52.90;;;;;;7688950;23;20008;-68
2022/05/19 06:25:35;;;;;;;5.55;2.90;;;24.90;52.80;;;;;;7714776;23;20016;-69
2022/05/19 06:28:36;;;;;;;25.52;3.42;;;25.00;52.60;;;;;;7687209;23;20032;-68
2022/05/19 06:31:37;;;;;;;6.93;3.28;;;25.10;52.40;;;;;;7713985;23;20099;-69
2022/05/19 06:34:38;;;;;;;8.07;3.63;;;25.10;52.30;;;;;;7711780;23;20016;-68
2022/05/19 06:37:39;;;;;;;9.68;3.00;;;25.20;52.10;;;;;;7649070;23;20021;-68
2022/05/19 06:40:40;;;;;;;3.72;2.88;;;25.30;52.10;;;;;;7676138;23;20040;-67
2022/05/19 06:43:41;;;;;;;4.80;3.05;;;25.30;51.90;;;;;;7675685;23;20084;-69
2022/05/19 06:46:41;;;;;;;6.90;3.05;;;25.40;51.80;;;;;;7675708;23;20387;-69
2022/05/19 06:49:45;;;;;;;13.85;3.53;;;25.50;51.70;;;;;;7676514;23;20031;-68
2022/05/19 06:52:52;;;;;;;9.95;2.75;;;25.60;51.50;;;;;;7675166;23;20039;-69
2022/05/19 06:55:53;;;;;;;7.53;3.15;;;25.80;51.20;;;;;;7677112;23;20024;-69
2022/05/19 06:58:54;;;;;;;8.38;3.35;;;25.90;50.90;;;;;;7677095;23;20013;-69
2022/05/19 07:01:54;;;;;;;4.75;2.40;;;26.00;50.60;;;;;;7676757;23;20028;-69
2022/05/19 07:04:56;;;;;;;6.15;2.78;;;26.10;50.30;;;;;;7651977;23;20013;-69
2022/05/19 07:07:57;;;;;;;9.60;3.20;;;26.10;50.10;;;;;;7677414;23;20088;-69
2022/05/19 07:10:59;;;;;;;9.88;3.28;;;26.10;49.80;;;;;;7676525;23;20324;-69
2022/05/19 07:14:03;;;;;;;13.23;3.70;;;26.10;49.90;;;;;;7676918;23;20023;-69
2022/05/19 07:17:05;;;;;;;6.80;2.78;;;26.10;49.80;;;;;;7677030;23;20017;-68
2022/05/19 07:23:28;;;;;;;10.18;3.25;;;26.20;49.60;;;;;;7677599;23;20013;-70
2022/05/19 07:26:29;;;;;;;6.55;3.00;;;26.30;49.50;;;;;;7677931;23;20393;-68
2022/05/19 07:29:30;;;;;;;10.55;3.10;;;26.40;49.20;;;;;;7652027;23;20024;-69
2022/05/19 07:32:32;;;;;;;5.25;2.60;;;26.40;48.80;;;;;;7652089;23;20024;-69
2022/05/19 07:35:34;;;;;;;6.30;2.80;;;26.60;48.50;;;;;;7676021;23;20079;-69
2022/05/19 07:38:35;;;;;;;5.63;2.90;;;26.70;48.10;;;;;;7678302;23;20338;-69
2022/05/19 07:41:36;;;;;;;7.82;2.95;;;26.80;47.90;;;;;;7677152;23;20009;-69
2022/05/19 07:44:37;;;;;;;11.40;3.13;;;26.90;47.90;;;;;;7678339;23;20085;-68
2022/05/19 07:47:39;;;;;;;18.45;3.00;;;27.10;47.80;;;;;;7676966;23;20013;-69
2022/05/19 07:50:40;;;;;;;8.13;3.00;;;27.20;47.70;;;;;;7676440;23;20428;-68
2022/05/19 07:53:41;;;;;;;6.03;2.88;;;27.40;47.60;;;;;;7651511;23;20087;-68
2022/05/19 07:56:43;;;;;;;3.40;2.25;;;27.50;47.50;;;;;;7677694;23;20025;-69
2022/05/19 07:59:44;;;;;;;14.45;3.20;;;27.60;47.30;;;;;;7676549;23;20104;-68
2022/05/19 08:02:46;;;;;;;11.63;2.88;;;27.80;47.00;;;;;;7676240;23;20013;-68
2022/05/19 08:05:47;;;;;;;7.80;2.90;;;27.90;46.80;;;;;;7675697;23;20486;-68
2022/05/19 08:08:48;;;;;;;5.53;3.25;;;28.00;46.60;;;;;;7676319;23;20016;-68
2022/05/19 08:11:50;;;;;;;11.85;2.97;;;28.10;46.30;;;;;;7675809;23;20025;-68
2022/05/19 08:18:14;;;;;;;7.20;3.30;;;28.20;45.50;;;;;;7715466;23;20431;-68
2022/05/19 08:21:15;;;;;;;13.18;3.30;;;28.30;45.30;;;;;;7663164;23;20103;-68
2022/05/19 08:24:17;;;;;;;11.70;3.10;;;28.40;45.20;;;;;;7688527;23;20037;-68
2022/05/19 08:27:20;;;;;;;6.40;3.15;;;28.50;44.90;;;;;;7715171;23;20032;-68
2022/05/19 08:30:22;;;;;;;4.72;2.45;;;28.60;44.60;;;;;;7688456;23;20020;-68
2022/05/19 08:33:23;;;;;;;11.05;2.97;;;28.50;44.30;;;;;;7688012;23;20016;-68
2022/05/19 08:36:26;;;;;;;10.55;3.17;;;28.60;44.00;;;;;;7688238;23;20016;-69
2022/05/19 08:39:27;;;;;;;6.53;2.67;;;28.70;43.80;;;;;;7662921;23;20073;-69
2022/05/19 08:42:31;;;;;;;10.23;2.80;;;28.80;43.50;;;;;;7688069;23;20016;-68
2022/05/19 08:45:39;;;;;;;7.07;2.47;;;28.80;43.30;;;;;;7690022;23;20091;-68
2022/05/19 08:48:40;;;;;;;8.38;3.10;;;28.90;43.20;;;;;;7687300;23;20036;-69
2022/05/19 08:51:59;;;;;;;10.80;3.05;;;28.90;42.90;;;;;;7714243;23;20031;-70
2022/05/19 08:55:00;;;;;;;6.68;2.38;;;29.00;42.60;;;;;;7714190;23;20036;-69
2022/05/19 08:58:34;;;;;;;7.63;2.83;;;29.20;42.50;;;;;;7687894;23;20020;-68
2022/05/19 09:01:35;;;;;;;8.88;3.00;;;29.20;42.40;;;;;;7713640;23;20021;-68
2022/05/19 09:05:12;;;;;;;11.50;3.58;;;29.30;42.10;;;;;;7686948;23;20095;-69
2022/05/19 09:08:40;;;;;;;9.57;3.40;;;29.40;42.00;;;;;;7710508;23;20012;-68
2022/05/19 09:11:58;;;;;;;7.55;3.17;;;29.50;41.70;;;;;;7710090;23;20016;-68
2022/05/19 09:14:59;;;;;;;9.18;3.40;;;29.60;41.40;;;;;;7711855;23;20427;-69
2022/05/19 09:18:00;;;;;;;9.52;3.40;;;29.60;41.30;;;;;;7685509;23;20078;-70
2022/05/19 09:21:05;;;;;;;11.07;3.28;;;29.60;41.20;;;;;;7711762;23;20100;-68
2022/05/19 09:24:12;;;;;;;4.97;2.97;;;29.60;41.00;;;;;;7710849;23;20043;-68
2022/05/19 09:27:14;;;;;;;14.13;3.72;;;29.70;40.90;;;;;;7685411;23;20273;-68
2022/05/19 09:30:37;;;;;;;6.28;3.67;;;29.80;40.70;;;;;;7685574;23;20108;-69
2022/05/19 09:33:44;;;;;;;8.18;3.00;;;29.90;40.50;;;;;;7683840;23;20032;-70
2022/05/19 09:37:04;;;;;;;10.23;3.35;;;30.00;40.20;;;;;;7710634;23;20032;-69
2022/05/19 09:40:11;;;;;;;11.30;3.40;;;30.00;40.10;;;;;;7681362;23;20020;-68
2022/05/19 09:43:28;;;;;;;11.07;3.63;;;30.10;40.00;;;;;;7659303;23;20416;-68
2022/05/19 09:46:50;;;;;;;9.02;3.58;;;30.20;39.80;;;;;;7659150;23;20115;-68
2022/05/19 09:50:16;;;;;;;9.98;3.15;;;30.30;39.50;;;;;;7711516;23;20152;-68
2022/05/19 09:53:25;;;;;;;11.60;3.67;;;30.40;39.70;;;;;;7710474;23;20021;-68
2022/05/19 09:56:37;;;;;;;8.13;3.38;;;30.50;39.00;;;;;;7710167;23;20107;-69
2022/05/19 09:59:47;;;;;;;6.85;3.50;;;30.60;38.70;;;;;;7660187;23;20022;-70
2022/05/19 10:02:58;;;;;;;7.57;3.17;;;30.80;38.50;;;;;;7684942;23;20008;-70
2022/05/19 10:06:08;;;;;;;9.57;3.10;;;31.10;38.10;;;;;;7711939;23;20008;-69
2022/05/19 10:09:15;;;;;;;5.53;3.10;;;31.40;37.60;;;;;;7697812;23;20430;-68
2022/05/19 10:12:25;;;;;;;6.65;3.20;;;31.80;37.10;;;;;;7685763;23;20024;-68
2022/05/19 10:15:37;;;;;;;5.75;3.10;;;32.10;36.50;;;;;;7712617;23;20024;-69
2022/05/19 10:18:57;;;;;;;7.20;3.63;;;32.40;36.10;;;;;;7685722;23;20008;-69
2022/05/19 10:22:23;;;;;;;19.27;4.20;;;32.60;36.20;;;;;;7685175;23;20024;-69
2022/05/19 10:25:27;;;;;;;6.10;2.90;;;32.80;34.90;;;;;;7711618;23;20442;-68
2022/05/19 10:31:59;;;;;;;7.70;3.15;;;32.90;34.30;;;;;;7712228;23;20023;-70
2022/05/19 10:35:12;;;;;;;12.18;2.95;;;33.00;34.10;;;;;;7676532;23;20433;-69
2022/05/19 10:38:28;;;;;;;10.35;3.55;;;33.00;33.80;;;;;;7667869;23;20420;-68
2022/05/19 10:41:57;;;;;;;13.98;3.33;;;33.10;33.80;;;;;;7713188;23;20494;-69
2022/05/19 10:45:17;;;;;;;10.77;3.10;;;33.10;33.50;;;;;;7564660;23;20018;-70
2022/05/19 10:48:36;;;;;;;8.07;2.95;;;33.20;33.30;;;;;;7549625;23;20018;-70
2022/05/19 10:51:52;;;;;;;14.02;3.83;;;33.20;33.40;;;;;;7561676;23;20052;-68
2022/05/19 10:55:08;;;;;;;12.80;3.28;;;33.30;33.40;;;;;;7561709;23;20018;-70
2022/05/19 10:58:23;;;;;;;11.77;3.33;;;33.50;33.10;;;;;;7528074;23;20019;-69
2022/05/19 11:01:36;;;;;;;7.13;3.67;;;34.00;32.80;;;;;;7538253;23;20065;-70
2022/05/19 11:04:55;;;;;;;11.45;2.95;;;34.60;31.90;;;;;;7513941;23;20034;-68
2022/05/19 11:08:17;;;;;;;14.40;3.47;;;35.40;30.90;;;;;;7557672;23;20018;-69
2022/05/19 11:11:48;;;;;;;10.30;3.45;;;36.20;30.00;;;;;;7536172;23;20022;-69
2022/05/19 11:14:50;;;;;;;14.23;3.40;;;37.00;29.20;;;;;;7560159;23;20033;-69
2022/05/19 11:17:57;;;;;;;4.50;3.13;;;37.50;28.60;;;;;;7541674;23;20025;-68
2022/05/19 11:21:00;;;;;;;8.83;3.07;;;37.80;28.20;;;;;;7592449;23;20389;-69
2022/05/19 11:24:32;;;;;;;6.00;3.60;;;37.90;28.00;;;;;;7673331;23;20020;-69
2022/05/19 11:27:43;;;;;;;10.10;3.17;;;38.00;27.90;;;;;;7638555;23;20266;-69
2022/05/19 11:30:51;;;;;;;11.73;3.00;;;38.30;27.60;;;;;;7668759;23;20017;-69
2022/05/19 11:33:54;;;;;;;8.80;3.22;;;38.40;27.60;;;;;;7670165;23;20028;-69
2022/05/19 11:36:58;;;;;;;11.45;4.00;;;38.30;27.40;;;;;;7672905;23;20024;-68
2022/05/19 11:40:17;;;;;;;10.02;3.13;;;37.70;27.50;;;;;;7671335;23;20108;-69
2022/05/19 11:43:34;;;;;;;7.03;3.17;;;37.10;28.10;;;;;;7670336;23;20028;-69
2022/05/19 11:46:53;;;;;;;9.95;3.58;;;36.60;28.80;;;;;;7672040;23;20021;-69
2022/05/19 11:57:23;;;;;;;9.82;3.70;;;35.70;29.70;;;;;;7522861;23;20402;-70
2022/05/19 12:00:29;;;;;;;6.57;3.60;;;35.60;29.80;;;;;;7500000;23;20175;-69
2022/05/19 12:03:51;;;;;;;12.20;3.30;;;35.40;30.00;;;;;;7485338;23;20023;-69
2022/05/19 12:07:27;;;;;;;8.00;2.92;;;35.10;30.00;;;;;;7500317;23;20110;-68
2022/05/19 12:10:36;;;;;;;7.75;3.20;;;35.10;30.20;;;;;;7524464;23;20417;-68
2022/05/19 12:13:40;;;;;;;16.65;3.72;;;35.30;30.00;;;;;;7525062;23;20085;-68
2022/05/19 12:16:59;;;;;;;10.55;3.42;;;35.70;29.90;;;;;;7526027;23;20090;-70
2022/05/19 12:20:03;;;;;;;11.77;3.00;;;36.10;29.50;;;;;;7524044;23;20323;-68
2022/05/19 12:23:15;;;;;;;8.30;3.15;;;36.70;28.90;;;;;;7502226;23;20011;-69
2022/05/19 12:26:16;;;;;;;11.10;3.30;;;37.10;28.40;;;;;;7502686;23;20045;-69
2022/05/19 12:29:29;;;;;;;8.35;3.13;;;37.30;28.10;;;;;;7501894;23;20018;-70
2022/05/19 12:32:36;;;;;;;13.63;3.55;;;37.60;28.10;;;;;;7549242;23;20013;-68
2022/05/19 12:35:38;;;;;;;;;;;37.90;27.60;;;;;;7674759;23;20013;-68
2022/05/19 12:38:42;;;;;;;13.27;3.28;;;38.30;27.30;;;;;;7640933;23;19946;-68
2022/05/19 12:41:49;;;;;;;10.40;3.65;;;38.60;26.90;;;;;;7614103;23;20016;-68
2022/05/19 12:44:55;;;;;;;8.80;3.03;;;38.80;26.60;;;;;;7638156;23;20032;-69
2022/05/19 12:48:21;;;;;;;13.70;3.17;;;38.80;26.70;;;;;;7649708;23;20013;-69
2022/05/19 12:51:46;;;;;;;8.80;3.28;;;38.80;26.50;;;;;;7640148;23;20083;-69
2022/05/19 12:55:11;;;;;;;8.05;2.88;;;39.10;26.20;;;;;;7674977;23;20020;-70
2022/05/19 12:58:33;;;;;;;9.52;3.22;;;39.30;25.90;;;;;;7649045;23;20085;-68
2022/05/19 13:01:45;;;;;;;5.00;3.08;;;39.90;25.60;;;;;;7639701;23;20024;-68
2022/05/19 13:04:57;;;;;;;6.15;2.97;;;40.50;25.10;;;;;;7659577;23;20032;-69
2022/05/19 13:08:13;;;;;;;6.72;2.70;;;41.10;24.30;;;;;;7619254;23;20021;-69
2022/05/19 13:11:19;;;;;;;6.10;2.95;;;41.30;23.80;;;;;;7673928;23;20032;-70
2022/05/19 13:14:28;;;;;;;6.65;3.10;;;41.20;23.90;;;;;;7639601;23;20362;-69
2022/05/19 13:17:37;;;;;;;16.10;3.22;;;41.10;24.10;;;;;;7612091;23;20013;-69
2022/05/19 13:20:40;;;;;;;24.75;4.15;;;41.50;23.80;;;;;;7656417;23;20080;-70
2022/05/19 13:23:42;;;;;;;11.90;3.20;;;42.00;24.00;;;;;;7674787;23;20024;-70
2022/05/19 13:26:46;;;;;;;10.32;3.35;;;42.60;22.90;;;;;;7675524;23;20060;-68
2022/05/19 13:33:09;;;;;;;7.13;3.03;;;43.00;22.10;;;;;;7675047;23;20020;-68
2022/05/19 13:36:12;;;;;;;13.18;3.42;;;41.50;23.30;;;;;;7676238;23;20013;-68
2022/05/19 13:39:15;;;;;;;10.80;3.15;;;40.00;24.60;;;;;;7676289;23;20035;-68
2022/05/19 13:42:17;;;;;;;9.40;3.70;;;39.00;25.60;;;;;;7676205;23;20071;-69
2022/05/19 13:45:23;;;;;;;8.52;3.88;;;38.40;26.30;;;;;;7674817;23;20841;-69
2022/05/19 13:48:33;;;;;;;7.82;4.13;;;37.70;27.10;;;;;;7676150;23;20017;-69
2022/05/19 13:51:44;;;;;;;8.57;4.13;;;36.90;27.90;;;;;;7673299;23;20112;-68
2022/05/19 13:54:49;;;;;;;8.75;3.60;;;37.20;28.00;;;;;;7675817;23;20079;-69
2022/05/19 13:57:52;;;;;;;14.52;3.55;;;37.30;27.90;;;;;;7649931;23;20017;-68
2022/05/19 14:00:54;;;;;;;5.90;3.55;;;36.80;28.40;;;;;;7674674;23;20091;-69
2022/05/19 14:03:57;;;;;;;8.00;3.38;;;36.60;28.80;;;;;;7649887;23;20147;-69
2022/05/19 14:06:58;;;;;;;11.80;3.85;;;36.70;28.80;;;;;;7675656;23;20096;-69
2022/05/19 14:10:09;;;;;;;12.80;3.83;;;36.60;29.00;;;;;;7673254;23;20017;-69
2022/05/19 14:13:16;;;;;;;17.58;3.38;;;36.10;29.50;;;;;;7675150;23;20023;-69
2022/05/19 14:16:18;;;;;;;13.52;4.25;;;35.60;30.00;;;;;;7673780;23;20013;-69
2022/05/19 14:19:37;;;;;;;13.23;3.42;;;35.10;31.30;;;;;;7667967;23;20431;-69
2022/05/19 14:22:38;;;;;;;15.85;4.75;;;34.50;31.70;;;;;;7649214;23;20017;-68
2022/05/19 14:25:40;;;;;;;15.75;4.10;;;34.10;32.40;;;;;;7648803;23;20024;-68
2022/05/19 14:28:44;;;;;;;8.00;3.72;;;33.80;33.20;;;;;;7649211;23;20020;-68
2022/05/19 14:31:46;;;;;;;10.20;4.30;;;33.50;33.70;;;;;;7673961;23;20013;-68
2022/05/19 14:34:48;;;;;;;9.38;3.58;;;33.20;34.20;;;;;;7649399;23;20012;-70
2022/05/19 14:37:54;;;;;;;11.13;4.13;;;33.00;34.90;;;;;;7674866;23;20498;-69
2022/05/19 14:44:16;;;;;;;8.20;4.45;;;32.70;35.50;;;;;;7608255;23;20385;-69
2022/05/19 14:47:26;;;;;;;9.40;3.85;;;32.60;35.80;;;;;;7586719;23;20028;-71
2022/05/19 14:50:34;;;;;;;13.18;4.50;;;32.50;35.90;;;;;;7646365;23;20028;-67
2022/05/19 14:53:36;;;;;;;8.70;3.90;;;32.50;36.00;;;;;;7647309;23;20013;-68
2022/05/19 14:56:58;;;;;;;7.28;4.30;;;32.40;36.00;;;;;;7647610;23;20017;-69
2022/05/19 15:00:00;;;;;;;9.63;3.88;;;32.40;36.40;;;;;;7646687;23;20372;-69
2022/05/19 15:03:03;;;;;;;13.15;4.38;;;32.50;36.40;;;;;;7671595;23;20017;-68
2022/05/19 15:06:04;;;;;;;13.32;4.05;;;32.50;36.30;;;;;;7644089;23;20364;-69
2022/05/19 15:09:05;;;;;;;8.85;3.65;;;32.60;36.20;;;;;;7645785;23;20020;-69
2022/05/19 15:12:07;;;;;;;17.98;3.90;;;32.70;35.90;;;;;;7646909;23;20450;-69
2022/05/19 15:15:09;;;;;;;14.13;4.38;;;32.80;35.80;;;;;;7646587;23;20332;-68
2022/05/19 15:18:14;;;;;;;8.68;3.78;;;32.90;35.80;;;;;;7645320;23;20297;-70
2022/05/19 15:21:15;;;;;;;20.52;4.63;;;33.10;35.70;;;;;;7672532;23;20467;-69
2022/05/19 15:24:16;;;;;;;14.82;4.90;;;33.30;35.60;;;;;;7646130;23;20024;-69
2022/05/19 15:27:20;;;;;;;7.57;3.88;;;33.30;35.50;;;;;;7636154;23;20124;-69
2022/05/19 15:30:28;;;;;;;14.55;4.25;;;33.50;35.50;;;;;;7673619;23;20052;-70
2022/05/19 15:33:29;;;;;;;10.48;4.25;;;33.40;35.30;;;;;;7646054;23;20326;-68
2022/05/19 15:36:31;;;;;;;11.95;4.72;;;33.40;35.20;;;;;;7673989;23;20055;-69
2022/05/19 15:39:32;;;;;;;12.32;4.25;;;33.50;35.10;;;;;;7672599;23;20083;-68
2022/05/19 15:42:33;;;;;;;9.90;3.75;;;33.50;35.00;;;;;;7674942;23;20024;-69
2022/05/19 15:45:35;;;;;;;7.55;3.67;;;33.60;35.00;;;;;;7674870;23;20020;-69
2022/05/19 15:48:37;;;;;;;14.43;3.67;;;33.60;34.80;;;;;;7648281;23;20023;-70
2022/05/19 15:51:40;;;;;;;6.65;3.67;;;33.60;34.70;;;;;;7673912;23;20115;-69
2022/05/19 15:54:42;;;;;;;13.68;3.63;;;33.70;34.50;;;;;;7672834;23;20013;-69
2022/05/19 15:57:44;;;;;;;7.68;3.47;;;33.60;34.40;;;;;;7673564;23;20013;-70
2022/05/19 16:00:46;;;;;;;6.40;3.20;;;33.60;34.40;;;;;;7674524;23;20016;-68
2022/05/19 16:03:47;;;;;;;8.00;3.65;;;33.50;34.40;;;;;;7672782;23;20017;-68
2022/05/19 16:06:49;;;;;;;11.18;4.00;;;33.50;34.30;;;;;;7672861;23;20027;-69
2022/05/19 16:09:50;;;;;;;9.68;4.07;;;33.50;34.40;;;;;;7671840;23;20025;-69
2022/05/19 16:12:54;;;;;;;8.88;3.92;;;34.10;33.60;;;;;;7648338;23;20467;-69
2022/05/19 16:15:55;;;;;;;7.88;3.65;;;34.60;33.10;;;;;;7647434;23;20041;-68
2022/05/19 16:19:06;;;;;;;12.50;3.00;;;34.70;33.90;;;;;;7635981;23;20008;-68
2022/05/19 16:22:21;;;;;;;10.32;3.53;;;34.90;34.30;;;;;;7711421;23;20098;-69
2022/05/19 16:25:25;;;;;;;12.80;3.97;;;35.10;34.40;;;;;;7712339;23;20407;-68
2022/05/19 16:28:26;;;;;;;13.60;3.33;;;34.90;34.40;;;;;;7685992;23;20024;-70